Aérodrome :
LOGIN :

S'inscrire | Disclaimer

   EN    FR    IT 

 










Légende :    VFR   VFR Marginal   IFR   IFR Intensif   IFR Très Intensif
Visi : 
Plafond : 
>= 8 km
>= 3000ft
5 à 8 km
1000 à 3000 ft
1500m à 5 km
500 à 1000 ft
800 à 1500m
200 à 500 ft
< 800m
< 200 ft
Symboles :   Orages  Brouillard  Fortes neiges  Fortes précipitations  Vent > 20 kt
SIGMETs :   Divers  Orages  Givrage  Turbulence  Onde Orograph.  Cendres Volcan.






- Altitude de l'aérodrome : 238 ft
- Code IATA : FAB


EGLF - Farnborough

DERNIER METAR :
  • 090420Z AUTO 22014KT 9999 FEW025/// 15/14 Q1012 REUP RERA

METARs EXPIRÉS :
  • 090350Z AUTO 22012KT 9999 FEW034/// SCT044/// 16/14 Q1012
  • 090320Z AUTO 22011KT 9999 BKN046/// 16/14 Q1013
  • 090250Z AUTO 21010KT 9999 NCD 16/14 Q1013
  • 090220Z AUTO 20007KT 9999 FEW039/// 16/15 Q1013
  • 090150Z AUTO 20007KT 9999 BKN037/// 16/15 Q1013

Prévision TAF périmée.
ATIS : +44 09063 800 400 (*282)



MET'MAP, la Météo Aéronautique d'un coup d'oeil ! - Copyright ORBIFLY Décembre 2007 - Disclaimer

ORBIFLY MET'MAP TEAM :

Programmation & Développement : Alexandra Zaïnal
Sur une idée originale de : Baudouin d'Aumeries
Assistance à la programmation : Marc-Olivier Méhu
Soutien technique & logistique : Manuel Goepfert

Contact : metmap@orbifly.com




SOURCES & CREDITS :

   NOAA